Time;durP1;ratioP1;P1;durP2;ratioP2;P2;SDS_P1;SDS_P2;PMS_P1;PMS_P2;Temp;Humidity;BMP_temperature;BMP_pressure;BME280_temperature;BME280_humidity;BME280_pressure;Samples;Min_cycle;Max_cycle;Signal;HPM_P1;HPM_P2
2023/09/13 00:10:52;;;;;;;1.48;0.65;;;;;;;19.25;60.06;99906.22;5019003;23;20072;-96
2023/09/13 00:13:18;;;;;;;1.25;1.15;;;;;;;19.53;60.32;99959.25;5012438;23;20030;-96
2023/09/13 00:16:13;;;;;;;1.63;0.28;;;;;;;19.17;60.86;99911.94;5011063;28;20102;-96
2023/09/13 00:21:48;;;;;;;1.15;0.55;;;;;;;18.93;60.89;99874.69;5584480;23;20045;-96
2023/09/13 00:24:21;;;;;;;2.05;1.85;;;;;;;19.43;61.80;99958.81;5605239;23;21147;31
2023/09/13 00:29:43;;;;;;;0.47;0.47;;;;;;;19.06;61.51;99872.31;5218125;23;20126;-96
2023/09/13 00:32:09;;;;;;;0.52;0.50;;;;;;;19.35;60.54;99886.09;4998360;23;20075;-94
2023/09/13 00:35:15;;;;;;;1.35;0.85;;;;;;;19.27;60.80;99907.00;5004859;23;20103;-96
2023/09/13 00:37:42;;;;;;;1.38;0.77;;;;;;;19.13;60.96;99875.56;4924790;29;20052;-95
2023/09/13 00:41:00;;;;;;;1.80;1.05;;;;;;;19.70;60.96;99963.78;5082084;23;20011;-88
2023/09/13 00:46:07;;;;;;;0.68;0.68;;;;;;;19.61;60.68;99937.47;4979899;28;20471;-95
2023/09/13 00:48:35;;;;;;;0.60;0.60;;;;;;;19.29;60.81;99884.59;4959658;28;20053;-96
2023/09/13 00:51:06;;;;;;;2.65;1.30;;;;;;;19.40;60.76;99918.84;4962072;28;20035;-96
2023/09/13 00:53:42;;;;;;;1.05;0.80;;;;;;;19.31;60.47;99879.19;4949605;29;20078;-96
2023/09/13 00:56:21;;;;;;;0.68;0.68;;;;;;;19.17;60.71;99874.50;4932408;29;20031;-93
2023/09/13 00:59:24;;;;;;;1.92;1.10;;;;;;;19.27;60.69;99904.31;4965877;29;20087;-96
2023/09/13 01:01:55;;;;;;;0.47;0.47;;;;;;;19.13;60.90;99903.16;4956433;28;20056;-96
2023/09/13 01:04:43;;;;;;;;;;;;;;;19.56;61.26;99979.66;4962702;23;20043;-95
2023/09/13 01:08:22;;;;;;;1.25;0.90;;;;;;;19.17;60.29;99906.56;4979883;28;19957;-93
2023/09/13 01:21:46;;;;;;;4.95;1.55;;;;;;;19.45;60.57;99977.47;4897448;29;20060;-94
2023/09/13 01:24:50;;;;;;;1.23;1.13;;;;;;;19.26;60.76;99982.81;4892125;29;20045;-94
2023/09/13 01:28:03;;;;;;;1.88;1.08;;;;;;;19.10;60.84;99940.72;4878545;29;20049;-95
2023/09/13 01:30:34;;;;;;;0.50;0.50;;;;;;;18.78;60.86;99872.69;4878476;29;20037;-96
2023/09/13 01:33:03;;;;;;;0.60;0.60;;;;;;;19.21;60.54;99952.75;4878719;29;20049;-96
2023/09/13 01:35:30;;;;;;;1.33;0.85;;;;;;;18.73;60.93;99904.13;4846685;29;20409;-96
2023/09/13 01:37:57;;;;;;;0.95;0.93;;;;;;;18.71;60.80;99914.88;4878940;29;20045;-96
2023/09/13 01:40:34;;;;;;;0.57;0.57;;;;;;;19.14;61.11;99977.09;4877611;29;20121;-96
2023/09/13 01:43:09;;;;;;;2.03;1.27;;;;;;;18.80;61.05;99932.31;4934396;29;20122;-95
2023/09/13 01:46:01;;;;;;;1.70;0.75;;;;;;;18.77;61.38;99943.13;4937099;29;20031;-96
2023/09/13 01:48:34;;;;;;;1.25;1.10;;;;;;;18.85;61.09;99941.00;4905567;29;20052;-96
2023/09/13 01:55:21;;;;;;;0.65;0.65;;;;;;;18.55;60.63;99893.34;5184228;23;20131;-94
2023/09/13 01:58:30;;;;;;;2.13;1.95;;;;;;;18.56;60.89;99895.03;4926204;29;20077;-94
2023/09/13 02:01:17;;;;;;;1.80;1.23;;;;;;;18.83;60.87;99937.50;4935405;29;20044;-95
2023/09/13 02:04:33;;;;;;;1.05;1.05;;;;;;;18.67;61.39;99905.25;4929464;29;20055;-92
2023/09/13 02:07:00;;;;;;;2.47;1.20;;;;;;;18.65;61.71;99911.63;4925842;29;20570;-95
2023/09/13 02:09:26;;;;;;;1.83;0.98;;;;;;;18.71;61.91;99933.56;4894178;29;20040;-94
2023/09/13 02:11:51;;;;;;;1.67;1.58;;;;;;;18.94;62.02;99977.16;4927312;29;20138;-94
2023/09/13 02:14:17;;;;;;;2.08;1.58;;;;;;;18.45;62.92;99939.22;4948265;29;20067;-94
2023/09/13 02:16:43;;;;;;;1.20;0.95;;;;;;;18.59;63.10;99952.81;4945460;29;20111;-95
2023/09/13 02:19:09;;;;;;;0.82;0.65;;;;;;;18.70;63.38;99990.59;4881653;29;20491;-94
2023/09/13 02:21:36;;;;;;;1.80;0.98;;;;;;;18.41;62.79;99968.72;4897532;29;20050;-95
2023/09/13 02:24:01;;;;;;;3.00;2.75;;;;;;;18.25;62.60;99941.78;4897687;29;20036;-95
2023/09/13 02:26:27;;;;;;;1.65;1.13;;;;;;;18.07;62.35;99938.13;4906006;29;20158;-95
2023/09/13 02:28:53;;;;;;;1.73;1.60;;;;;;;18.24;62.49;99987.25;4966817;28;20506;-96
2023/09/13 02:31:27;;;;;;;1.42;1.13;;;;;;;18.04;62.47;99959.59;4939850;28;20030;-95
2023/09/13 02:33:54;;;;;;;1.05;0.90;;;;;;;18.22;62.57;100005.13;4954486;28;20042;-94
2023/09/13 02:36:22;;;;;;;4.43;1.42;;;;;;;17.94;62.57;99962.72;4939791;28;20031;-94
2023/09/13 02:38:50;;;;;;;5.15;0.98;;;;;;;17.93;62.16;99967.16;4963701;28;20045;-94
2023/09/13 02:41:21;;;;;;;2.97;2.20;;;;;;;17.95;62.50;100002.69;4943072;28;20039;-96
2023/09/13 02:43:48;;;;;;;1.15;0.77;;;;;;;17.90;62.68;99993.97;4969267;28;20066;-89
2023/09/13 02:46:13;;;;;;;3.17;1.65;;;;;;;17.80;62.71;99966.78;4939947;28;20114;-95
2023/09/13 02:48:40;;;;;;;2.47;2.10;;;;;;;17.94;62.30;99990.25;4957216;28;20552;-95
2023/09/13 02:51:12;;;;;;;4.70;1.58;;;;;;;17.87;61.80;99972.72;4940327;28;20043;-96
2023/09/13 02:53:56;;;;;;;1.02;0.90;;;;;;;17.72;62.25;99967.09;4971963;28;20055;-89
2023/09/13 02:56:22;;;;;;;1.77;1.65;;;;;;;17.61;62.62;99987.09;4986180;28;20050;-89
2023/09/13 02:58:47;;;;;;;2.63;1.38;;;;;;;17.39;63.47;99965.75;4990917;28;20438;-90
2023/09/13 03:01:13;;;;;;;4.47;1.95;;;;;;;17.42;63.32;99968.28;4957075;28;20449;-87
2023/09/13 03:03:38;;;;;;;2.05;1.55;;;;;;;17.48;63.85;99981.38;4953396;28;20078;-87
2023/09/13 03:06:18;;;;;;;3.00;1.88;;;;;;;17.63;63.12;99994.13;4971018;28;20035;-88
2023/09/13 03:08:44;;;;;;;3.05;2.00;;;;;;;17.30;63.70;100004.28;4971443;28;20039;-88
2023/09/13 03:11:17;;;;;;;3.00;1.52;;;;;;;17.22;63.89;99993.91;4973280;28;20035;-89
2023/09/13 03:13:44;;;;;;;4.95;2.53;;;;;;;16.91;64.77;99988.84;4953502;28;20437;-87
2023/09/13 03:16:18;;;;;;;2.10;1.75;;;;;;;16.72;64.49;99946.00;4970609;28;20474;-87
2023/09/13 03:18:45;;;;;;;2.50;2.03;;;;;;;16.69;65.04;99972.75;4953891;28;20038;-89
2023/09/13 03:21:11;;;;;;;0.57;0.57;;;;;;;16.91;64.84;99992.38;4972837;28;20075;-87
2023/09/13 03:23:38;;;;;;;2.85;2.40;;;;;;;17.04;64.26;100010.59;4953493;28;20041;-91
2023/09/13 03:26:20;;;;;;;2.42;1.95;;;;;;;17.16;63.68;99995.03;4973647;28;20058;-88
2023/09/13 03:28:48;;;;;;;2.45;1.92;;;;;;;16.95;63.46;99946.06;4971172;28;20110;-87
2023/09/13 03:31:18;;;;;;;2.88;2.00;;;;;;;17.14;63.90;99991.53;4978220;28;20031;-87
2023/09/13 03:33:44;;;;;;;4.28;1.23;;;;;;;17.17;63.96;100003.88;4974867;28;20030;-88
2023/09/13 03:36:11;;;;;;;1.42;1.33;;;;;;;17.04;64.16;99981.28;4973661;28;20034;-88
2023/09/13 03:38:39;;;;;;;5.70;2.67;;;;;;;16.93;64.37;99957.69;4957062;28;20031;-87
2023/09/13 03:41:09;;;;;;;1.60;1.33;;;;;;;16.88;64.66;99949.00;4985351;28;20121;-86
2023/09/13 03:43:34;;;;;;;1.65;1.55;;;;;;;17.19;64.69;99994.03;4957104;28;20038;-85
2023/09/13 03:46:04;;;;;;;4.65;2.03;;;;;;;17.09;65.16;99996.16;4973940;28;20637;-86
2023/09/13 03:48:34;;;;;;;8.25;2.33;;;;;;;17.06;65.70;100019.41;4974463;28;20034;-86
2023/09/13 03:51:00;;;;;;;4.07;1.67;;;;;;;16.89;65.26;100001.38;4974151;28;20035;-86
2023/09/13 03:53:26;;;;;;;0.82;0.82;;;;;;;16.68;65.82;100014.47;4976644;28;20055;-88
2023/09/13 03:55:53;;;;;;;8.10;1.77;;;;;;;16.57;66.07;100041.47;4984466;28;20428;-88
2023/09/13 03:58:18;;;;;;;4.43;2.08;;;;;;;16.58;65.84;100021.94;4994159;28;20046;-88
2023/09/13 04:00:44;;;;;;;3.20;1.90;;;;;;;16.61;64.86;99986.34;4993563;28;20471;-87
2023/09/13 04:03:10;;;;;;;1.35;1.10;;;;;;;16.79;64.97;100009.66;4986238;28;20122;-87
2023/09/13 04:05:35;;;;;;;1.10;1.05;;;;;;;16.69;64.81;99984.28;4973731;28;20031;-87
2023/09/13 04:08:01;;;;;;;1.08;1.00;;;;;;;16.81;65.34;100022.94;4956271;28;20022;-88
2023/09/13 04:10:26;;;;;;;1.52;1.40;;;;;;;16.51;65.60;99972.47;4963476;28;20034;-87
2023/09/13 04:12:52;;;;;;;1.67;1.58;;;;;;;16.85;65.38;100029.00;4991860;28;20030;-88
2023/09/13 04:15:18;;;;;;;2.38;1.75;;;;;;;16.57;65.99;99988.22;4975666;28;20461;-89
2023/09/13 04:17:43;;;;;;;1.00;0.80;;;;;;;16.71;65.94;100003.72;4973596;28;20046;-90
2023/09/13 04:20:09;;;;;;;;;;;;;;;16.92;65.87;100034.09;4977561;28;20038;-88
2023/09/13 04:22:35;;;;;;;1.67;1.40;;;;;;;17.00;65.08;100034.69;4980651;28;19917;-86
2023/09/13 04:25:00;;;;;;;3.45;1.83;;;;;;;16.97;65.60;100037.47;4993184;28;20037;-87
2023/09/13 04:27:26;;;;;;;3.47;1.75;;;;;;;16.82;65.33;99982.03;4991785;28;20065;-87
2023/09/13 04:29:54;;;;;;;2.33;2.10;;;;;;;16.91;65.43;99996.84;4987746;28;20556;-87
2023/09/13 04:32:21;;;;;;;6.93;2.03;;;;;;;16.80;65.58;99990.06;4993176;28;20068;-86
2023/09/13 04:34:46;;;;;;;3.65;2.17;;;;;;;16.83;66.04;99987.28;4990250;28;20033;-85
2023/09/13 04:37:12;;;;;;;1.33;1.23;;;;;;;17.19;66.04;100042.00;4972496;28;20034;-86
2023/09/13 04:39:38;;;;;;;2.83;1.98;;;;;;;17.23;66.34;100035.66;4973274;28;20038;-87
2023/09/13 04:42:06;;;;;;;4.07;2.60;;;;;;;17.25;65.65;100012.44;4976157;28;20030;-85
2023/09/13 04:44:31;;;;;;;15.15;4.47;;;;;;;17.48;65.52;100034.72;4972859;28;20031;-85
2023/09/13 04:46:58;;;;;;;1.63;0.98;;;;;;;17.55;65.46;100049.56;4973144;28;20045;-85
2023/09/13 04:49:24;;;;;;;2.83;1.63;;;;;;;17.38;65.46;100012.88;4985618;28;20053;-85
2023/09/13 04:51:50;;;;;;;8.35;4.00;;;;;;;17.70;65.12;100046.31;4985628;28;20034;-85
2023/09/13 04:54:15;;;;;;;2.55;1.63;;;;;;;17.67;65.66;100050.88;4992857;28;20077;-86
2023/09/13 04:56:40;;;;;;;1.48;1.02;;;;;;;17.57;66.11;100036.19;4983654;28;20030;-87
2023/09/13 04:59:06;;;;;;;3.10;1.80;;;;;;;17.41;66.42;100009.22;4976563;28;20380;-88
2023/09/13 05:01:31;;;;;;;2.33;1.48;;;;;;;17.34;66.24;99995.25;4972589;28;20070;-82
2023/09/13 05:03:58;;;;;;;2.40;1.45;;;;;;;17.56;65.99;100015.75;4960490;28;20433;-87
2023/09/13 05:06:23;;;;;;;6.55;0.85;;;;;;;17.74;66.24;100052.41;4987190;28;20033;-86
2023/09/13 05:08:52;;;;;;;1.88;1.50;;;;;;;17.65;65.75;100018.94;4985394;28;20449;-86
2023/09/13 05:11:17;;;;;;;11.48;2.10;;;;;;;17.85;65.85;100036.81;4979541;28;20559;-86
2023/09/13 05:13:47;;;;;;;2.63;1.40;;;;;;;17.76;65.49;100005.16;4962121;28;20134;-86
2023/09/13 05:16:19;;;;;;;1.85;1.23;;;;;;;17.84;66.21;99988.84;4972141;28;20039;-86
2023/09/13 05:18:45;;;;;;;3.17;2.85;;;;;;;18.22;66.08;100007.81;4972835;28;20109;-85
2023/09/13 05:21:11;;;;;;;6.45;3.00;;;;;;;18.53;65.28;100033.22;4970017;28;20054;-86
2023/09/13 05:23:36;;;;;;;2.83;2.00;;;;;;;18.66;64.69;100033.56;4972396;28;20417;-85
2023/09/13 05:26:02;;;;;;;2.67;1.55;;;;;;;18.79;64.31;100014.25;4972442;28;20030;-86
2023/09/13 05:28:33;;;;;;;7.50;3.00;;;;;;;19.10;63.58;100047.69;4972766;28;20022;-86
2023/09/13 05:30:58;;;;;;;1.02;0.95;;;;;;;19.04;62.87;99991.81;4980853;28;20030;-86
2023/09/13 05:33:25;;;;;;;5.53;2.40;;;;;;;19.48;61.93;100029.03;4986111;28;20031;-86
2023/09/13 05:35:51;;;;;;;2.55;1.40;;;;;;;19.73;61.31;100033.22;4978134;28;20041;-85
2023/09/13 05:38:16;;;;;;;2.35;1.73;;;;;;;19.85;60.71;100026.44;4976341;28;20023;-86
2023/09/13 05:40:42;;;;;;;2.30;1.85;;;;;;;19.81;59.98;99996.28;4983478;28;20045;-86
2023/09/13 05:43:07;;;;;;;1.50;1.15;;;;;;;20.29;59.06;100027.88;4964936;28;20030;-86
2023/09/13 05:45:33;;;;;;;3.00;2.35;;;;;;;20.21;58.18;100058.59;4982673;28;20035;-86
2023/09/13 05:47:59;;;;;;;3.35;2.45;;;;;;;20.23;58.55;100052.28;4982569;28;20031;-87
2023/09/13 05:50:27;;;;;;;5.05;2.22;;;;;;;20.37;58.55;100041.75;4984182;28;20113;-89
2023/09/13 05:52:53;;;;;;;6.40;2.85;;;;;;;20.41;57.84;100048.69;4977025;28;20485;-88
2023/09/13 05:55:19;;;;;;;2.45;1.63;;;;;;;20.66;57.56;100023.38;4987636;28;20129;-88
2023/09/13 05:57:46;;;;;;;2.85;2.35;;;;;;;20.81;56.98;100024.41;4968926;28;20046;-88
2023/09/13 06:00:14;;;;;;;3.67;3.38;;;;;;;20.61;56.58;100010.16;4976339;28;20042;-88
2023/09/13 06:02:39;;;;;;;4.18;1.77;;;;;;;21.03;56.45;100021.44;4983931;28;20413;-89
2023/09/13 06:05:05;;;;;;;0.98;0.88;;;;;;;21.45;55.91;100036.16;4974732;28;20069;-89
2023/09/13 06:07:31;;;;;;;4.03;3.08;;;;;;;21.89;55.41;100056.13;4985858;28;20018;-88
2023/09/13 06:09:58;;;;;;;2.53;1.65;;;;;;;22.09;54.72;100061.25;4968079;28;20057;-90
2023/09/13 06:12:25;;;;;;;2.35;1.17;;;;;;;22.11;54.12;100035.16;4974787;28;20057;-89
2023/09/13 06:14:53;;;;;;;1.48;1.30;;;;;;;22.26;54.07;100000.28;4973360;28;20074;-89
2023/09/13 06:17:19;;;;;;;3.55;2.10;;;;;;;22.61;53.50;100032.31;4971229;28;20031;-89
2023/09/13 06:19:44;;;;;;;26.17;3.20;;;;;;;22.79;53.28;100007.00;4971064;28;20026;-88
2023/09/13 06:22:10;;;;;;;3.08;1.83;;;;;;;23.04;52.86;100032.41;4974817;28;20215;-90
2023/09/13 06:24:35;;;;;;;2.67;1.27;;;;;;;23.40;52.38;100033.78;4993516;28;20041;-88
2023/09/13 06:27:01;;;;;;;4.20;2.40;;;;;;;23.60;51.69;100029.81;4981480;28;20359;-88
2023/09/13 06:29:26;;;;;;;0.98;0.85;;;;;;;23.68;51.27;100032.03;4953386;28;20042;-86
2023/09/13 06:31:54;;;;;;;2.75;2.40;;;;;;;23.80;51.37;100063.56;4972013;28;20057;-90
2023/09/13 06:34:19;;;;;;;1.80;1.55;;;;;;;23.89;50.43;100056.75;4978052;28;20030;-89
2023/09/13 06:36:46;;;;;;;2.67;2.45;;;;;;;24.08;50.30;100030.34;4982976;28;20045;-91
2023/09/13 06:39:12;;;;;;;1.48;1.38;;;;;;;24.66;49.50;100059.78;4971056;28;20031;-91
2023/09/13 06:41:37;;;;;;;3.47;2.15;;;;;;;24.60;46.73;100049.41;4970531;28;20377;-95
2023/09/13 06:44:08;;;;;;;4.25;2.33;;;;;;;24.08;47.74;100003.41;4954140;28;20046;-96
2023/09/13 06:46:34;;;;;;;3.30;2.30;;;;;;;24.48;46.59;100030.38;4952829;28;20429;-92
2023/09/13 06:48:59;;;;;;;2.00;1.42;;;;;;;24.75;46.00;100052.91;4969713;28;20042;-91
2023/09/13 06:51:25;;;;;;;4.43;3.15;;;;;;;24.93;45.86;100040.84;4970869;28;20034;-95
2023/09/13 06:53:50;;;;;;;4.13;1.50;;;;;;;24.84;45.45;100042.34;4952770;28;20074;-89
2023/09/13 06:56:16;;;;;;;3.72;2.10;;;;;;;24.98;45.63;100051.31;4970228;28;20088;-89
2023/09/13 06:58:41;;;;;;;4.25;2.17;;;;;;;25.27;44.28;100018.69;4951884;28;20145;-88
2023/09/13 07:01:06;;;;;;;7.10;2.70;;;;;;;25.08;44.05;100044.28;4970227;28;20122;-91
2023/09/13 07:03:33;;;;;;;7.85;2.33;;;;;;;25.03;44.07;100041.91;4973201;28;20101;-96
2023/09/13 07:05:59;;;;;;;3.45;2.45;;;;;;;25.09;42.08;100016.34;4954266;28;20873;-95
2023/09/13 07:08:24;;;;;;;2.40;2.20;;;;;;;25.43;41.37;100035.56;4940884;28;20413;-93
2023/09/13 07:10:50;;;;;;;2.38;2.00;;;;;;;25.61;40.98;100044.19;4958856;28;20481;-95
2023/09/13 07:13:16;;;;;;;1.15;1.05;;;;;;;25.00;41.91;100030.47;4958423;28;20041;-94
2023/09/13 07:15:41;;;;;;;3.08;1.70;;;;;;;25.20;41.07;100029.94;4963248;28;20469;-96
2023/09/13 07:18:08;;;;;;;2.42;1.77;;;;;;;25.46;41.39;100045.28;4978221;28;20042;-96
2023/09/13 07:20:34;;;;;;;2.03;1.48;;;;;;;25.63;40.56;100006.28;4974540;28;20033;-94
2023/09/13 07:23:00;;;;;;;2.72;1.30;;;;;;;25.73;40.75;100037.00;4956397;28;20035;-93
2023/09/13 07:25:26;;;;;;;1.85;1.23;;;;;;;25.97;40.22;99991.13;4979109;28;20026;-94
2023/09/13 07:27:52;;;;;;;3.53;1.77;;;;;;;26.23;38.55;100018.06;4972580;28;20101;-88
2023/09/13 07:30:18;;;;;;;1.92;1.50;;;;;;;26.68;37.58;100017.38;4956614;28;20038;-91
2023/09/13 07:32:47;;;;;;;1.38;1.13;;;;;;;26.96;38.27;100041.31;4958651;28;20035;-89
2023/09/13 07:35:12;;;;;;;1.42;1.25;;;;;;;26.92;36.62;100020.03;4975621;28;20105;-92
2023/09/13 07:37:38;;;;;;;1.98;1.27;;;;;;;27.33;36.95;100029.47;4985388;28;20117;-89
2023/09/13 07:40:04;;;;;;;2.88;1.77;;;;;;;27.22;35.42;100015.88;4976729;28;20137;-92
2023/09/13 07:42:30;;;;;;;2.70;2.03;;;;;;;27.31;35.77;100002.53;4974769;28;20464;-92
2023/09/13 07:44:56;;;;;;;2.53;1.20;;;;;;;27.41;35.05;100024.28;4958305;28;20049;-89
2023/09/13 07:47:25;;;;;;;2.25;1.45;;;;;;;27.18;37.27;100011.72;4973252;28;20031;-90
2023/09/13 07:49:52;;;;;;;3.08;2.03;;;;;;;27.32;35.74;100012.34;4973256;28;20027;-91
2023/09/13 07:52:18;;;;;;;1.48;1.15;;;;;;;27.28;35.70;100007.25;4960128;28;20034;-93
2023/09/13 07:54:43;;;;;;;1.33;0.88;;;;;;;27.30;35.74;99992.63;4982928;28;20561;-91
2023/09/13 07:57:09;;;;;;;1.45;1.10;;;;;;;27.84;34.89;100001.81;4972891;28;20093;-91
2023/09/13 07:59:34;;;;;;;1.73;1.20;;;;;;;28.20;34.53;100021.47;4972945;28;20037;-91
2023/09/13 08:01:59;;;;;;;1.73;1.63;;;;;;;27.68;35.65;99980.56;4955072;28;20134;-92
2023/09/13 08:04:25;;;;;;;2.58;1.42;;;;;;;28.10;35.46;100020.53;4973252;28;20477;-91
2023/09/13 08:06:50;;;;;;;1.23;0.93;;;;;;;28.25;34.83;100012.94;4973189;28;20272;-90
2023/09/13 08:09:16;;;;;;;2.15;1.35;;;;;;;28.72;33.84;100012.66;4973408;28;20038;-93
2023/09/13 08:11:43;;;;;;;0.73;0.73;;;;;;;28.94;32.04;99968.19;5020619;23;20054;-96
2023/09/13 08:14:09;;;;;;;5.88;1.85;;;;;;;28.68;34.36;99997.63;4992728;28;20038;-89
2023/09/13 08:16:35;;;;;;;3.55;1.73;;;;;;;28.07;35.54;99981.94;4973509;28;20116;-93
2023/09/13 08:19:01;;;;;;;2.35;1.60;;;;;;;28.15;36.30;99988.47;4973563;28;20031;-94
2023/09/13 08:21:26;;;;;;;11.23;2.17;;;;;;;28.22;36.41;99957.13;4971180;28;20050;-92
2023/09/13 08:23:52;;;;;;;1.27;0.90;;;;;;;28.82;32.91;100004.56;4972556;28;20043;-90
2023/09/13 08:26:19;;;;;;;1.73;1.60;;;;;;;28.21;35.34;99962.69;4955598;28;20038;-94
2023/09/13 08:28:52;;;;;;;2.30;1.75;;;;;;;28.51;33.43;99980.88;4959623;28;20477;-96
2023/09/13 08:31:25;;;;;;;1.60;1.42;;;;;;;28.77;33.31;99996.81;4979371;28;20019;-96
2023/09/13 08:33:54;;;;;;;2.65;1.38;;;;;;;28.37;33.83;99960.38;4976218;28;20332;-87
2023/09/13 08:36:19;;;;;;;1.75;0.95;;;;;;;28.50;32.96;99979.19;4957367;28;20074;-90
2023/09/13 08:38:48;;;;;;;14.57;2.08;;;;;;;28.55;33.10;99974.22;4939014;28;20043;-95
2023/09/13 08:41:17;;;;;;;6.38;2.60;;;;;;;28.42;33.25;99922.00;4924551;28;20419;-92
2023/09/13 08:43:43;;;;;;;4.15;2.92;;;;;;;29.06;33.20;99982.56;4983144;28;20026;-95
2023/09/13 08:46:11;;;;;;;2.30;1.75;;;;;;;28.80;34.33;99993.84;4976037;28;20034;-88
2023/09/13 08:48:37;;;;;;;35.50;27.88;;;;;;;28.78;34.56;99956.97;4974424;28;20141;-94
2023/09/13 08:51:13;;;;;;;7.25;4.97;;;;;;;28.73;33.56;99977.25;4974904;28;20465;-94
2023/09/13 08:53:47;;;;;;;2.88;2.22;;;;;;;28.19;33.96;99940.25;4960100;28;20046;-95
2023/09/13 08:56:14;;;;;;;7.82;4.00;;;;;;;28.23;35.05;99949.84;4976012;28;20039;-92
2023/09/13 08:58:40;;;;;;;3.38;2.78;;;;;;;28.12;34.13;99958.91;4955283;28;20117;-91
2023/09/13 09:01:09;;;;;;;4.25;2.83;;;;;;;28.29;34.74;99981.03;4956710;28;20481;-96
2023/09/13 09:03:36;;;;;;;2.38;1.90;;;;;;;27.94;35.50;99934.16;4976638;28;20050;-88
2023/09/13 09:06:04;;;;;;;3.67;1.98;;;;;;;27.85;35.13;99954.78;4972495;28;20034;-89
2023/09/13 09:08:30;;;;;;;3.50;2.17;;;;;;;27.99;34.64;99969.03;4954353;28;20042;-86
2023/09/13 09:10:59;;;;;;;3.35;2.08;;;;;;;27.68;35.63;99967.00;4956626;28;20043;-90
2023/09/13 09:13:27;;;;;;;20.85;2.58;;;;;;;27.75;36.17;99952.97;4968780;28;20075;-92
2023/09/13 09:15:56;;;;;;;3.38;3.05;;;;;;;28.09;34.17;99945.59;4954945;28;20038;-93
2023/09/13 09:18:25;;;;;;;3.67;2.47;;;;;;;28.07;34.83;99941.28;4956940;28;20555;-91
2023/09/13 09:20:50;;;;;;;3.63;2.47;;;;;;;27.86;34.33;99942.06;4954861;28;20039;-90
2023/09/13 09:23:17;;;;;;;3.03;2.13;;;;;;;27.59;35.27;99937.97;4971880;28;20027;-91
2023/09/13 09:25:44;;;;;;;4.32;3.33;;;;;;;27.65;34.94;99955.56;4972193;28;20150;-89
2023/09/13 09:28:10;;;;;;;3.10;2.80;;;;;;;27.82;34.52;99936.06;4973371;28;20037;-88
2023/09/13 09:30:36;;;;;;;8.68;2.97;;;;;;;27.92;35.16;99952.41;4971340;28;20035;-85
2023/09/13 09:33:06;;;;;;;1.67;1.38;;;;;;;27.47;35.90;99934.41;4954333;28;20046;-86
2023/09/13 09:35:33;;;;;;;2.10;1.77;;;;;;;27.56;35.95;99950.88;4971648;28;20031;-86
2023/09/13 09:37:59;;;;;;;3.47;2.08;;;;;;;27.85;35.31;99932.22;4971047;28;20031;-83
2023/09/13 09:40:24;;;;;;;13.23;2.75;;;;;;;27.71;35.27;99900.00;4934909;28;20498;-87
2023/09/13 09:42:56;;;;;;;6.32;4.53;;;;;;;27.91;34.61;99938.97;4970806;28;20046;-93
2023/09/13 09:45:26;;;;;;;6.68;3.13;;;;;;;27.87;34.40;99911.28;4940239;28;20073;-91
2023/09/13 09:48:09;;;;;;;3.75;2.63;;;;;;;28.03;35.94;99936.13;4956975;28;20042;-92
2023/09/13 09:50:52;;;;;;;3.38;2.58;;;;;;;28.24;34.94;99935.31;4945081;28;20516;-89
2023/09/13 09:53:21;;;;;;;7.65;2.08;;;;;;;28.20;34.11;99901.31;4971997;28;20345;-89
2023/09/13 09:55:47;;;;;;;2.00;1.58;;;;;;;27.89;34.94;99890.31;4970364;28;20432;-88
2023/09/13 09:58:13;;;;;;;3.05;2.40;;;;;;;28.20;34.45;99926.56;4970817;28;20042;-84
2023/09/13 10:00:50;;;;;;;1.52;1.27;;;;;;;28.09;35.54;99898.66;4971495;28;20031;-87
2023/09/13 10:03:17;;;;;;;7.90;1.50;;;;;;;28.16;34.66;99897.13;4978950;28;20453;-95
2023/09/13 10:06:10;;;;;;;1.67;1.23;;;;;;;28.51;34.56;99898.66;4974164;28;20441;-91
2023/09/13 10:08:44;;;;;;;2.55;1.92;;;;;;;27.98;33.63;99861.63;4940513;28;20054;-89
2023/09/13 10:11:15;;;;;;;2.22;2.03;;;;;;;27.98;34.70;99850.78;4936207;29;20047;-88
2023/09/13 10:13:45;;;;;;;6.05;2.47;;;;;;;27.94;34.24;99862.81;4969241;28;20509;-87
2023/09/13 10:16:29;;;;;;;3.00;1.83;;;;;;;28.28;34.60;99868.94;4972691;28;20034;-87
2023/09/13 10:19:02;;;;;;;1.33;1.23;;;;;;;28.33;33.64;99836.00;4972624;28;20128;-88
2023/09/13 10:21:47;;;;;;;1.38;1.10;;;;;;;28.42;33.68;99891.31;4962227;28;20043;-88
2023/09/13 10:24:17;;;;;;;4.53;3.15;;;;;;;28.38;33.74;99856.31;4935399;28;20043;-85
2023/09/13 10:26:45;;;;;;;4.57;2.75;;;;;;;28.20;33.56;99858.75;4970843;28;20126;-85
2023/09/13 10:29:15;;;;;;;5.30;3.20;;;;;;;28.39;33.51;99847.19;4972069;28;20382;-85
2023/09/13 10:31:47;;;;;;;3.60;2.17;;;;;;;28.63;33.36;99859.63;4960335;28;20033;-86
2023/09/13 10:34:25;;;;;;;1.83;1.55;;;;;;;28.83;32.69;99860.56;4970999;28;20830;-85
2023/09/13 10:37:08;;;;;;;1.58;1.23;;;;;;;28.58;32.08;99860.03;4942103;28;20409;-85
2023/09/13 10:39:39;;;;;;;1.15;1.05;;;;;;;28.84;31.94;99872.28;4970300;28;20042;-88
2023/09/13 10:42:10;;;;;;;1.77;1.17;;;;;;;28.92;32.58;99857.03;4970902;28;20512;-87
2023/09/13 10:44:37;;;;;;;2.58;1.75;;;;;;;29.13;32.42;99861.53;4960772;28;20031;-88
2023/09/13 10:47:07;;;;;;;2.67;1.77;;;;;;;29.15;31.53;99845.97;4970398;28;20039;-84
2023/09/13 10:49:37;;;;;;;2.05;1.83;;;;;;;29.32;32.24;99849.00;4970737;28;20034;-83
2023/09/13 10:52:03;;;;;;;2.33;1.27;;;;;;;29.50;31.36;99850.03;4969647;28;20074;-90
2023/09/13 10:54:31;;;;;;;1.83;1.00;;;;;;;29.51;31.39;99837.34;4969967;28;20039;-83
2023/09/13 10:56:56;;;;;;;3.15;1.55;;;;;;;29.35;31.45;99827.00;4952952;28;20031;-84
2023/09/13 10:59:24;;;;;;;0.85;0.80;;;;;;;29.34;31.35;99842.44;4970186;28;20090;-92
2023/09/13 11:01:50;;;;;;;1.00;0.90;;;;;;;29.59;31.26;99841.03;4969584;28;20027;-89
2023/09/13 11:04:18;;;;;;;2.47;1.73;;;;;;;29.84;31.89;99855.09;4969524;28;20379;-86
2023/09/13 11:06:45;;;;;;;0.77;0.60;;;;;;;29.81;31.65;99814.59;4970037;28;20038;-88
2023/09/13 11:09:15;;;;;;;9.73;1.98;;;;;;;29.87;32.70;99811.31;4969701;28;20035;-87
2023/09/13 11:11:48;;;;;;;1.60;1.00;;;;;;;29.68;30.87;99825.75;4970416;28;20062;-87
2023/09/13 11:14:19;;;;;;;1.13;0.90;;;;;;;29.69;31.73;99813.88;4970041;28;20041;-85
2023/09/13 11:16:47;;;;;;;1.38;1.00;;;;;;;29.36;31.18;99777.97;4969830;28;20078;-86
2023/09/13 11:19:16;;;;;;;1.30;0.88;;;;;;;29.68;31.68;99805.88;4969088;28;20521;-86
2023/09/13 11:21:50;;;;;;;1.48;1.38;;;;;;;30.01;31.06;99831.75;4970103;28;20042;-85
2023/09/13 11:24:46;;;;;;;4.90;1.67;;;;;;;30.23;30.18;99817.00;4969372;28;20031;-85
2023/09/13 11:27:16;;;;;;;1.30;0.85;;;;;;;30.06;30.91;99788.69;4969705;28;20568;-86
2023/09/13 11:29:47;;;;;;;1.92;1.30;;;;;;;29.97;31.31;99789.56;4970297;28;20035;-84
2023/09/13 11:32:21;;;;;;;1.83;1.45;;;;;;;29.92;31.23;99789.13;4970164;28;20085;-85
2023/09/13 11:34:55;;;;;;;1.27;1.17;;;;;;;30.14;31.08;99793.41;4970503;28;20035;-85
2023/09/13 11:37:23;;;;;;;1.85;0.70;;;;;;;30.20;30.46;99781.94;4969161;28;20444;-92
2023/09/13 11:39:53;;;;;;;3.95;2.03;;;;;;;30.34;30.71;99802.38;4953228;28;20409;-87
2023/09/13 11:42:28;;;;;;;2.33;1.48;;;;;;;30.22;30.93;99807.09;4953304;28;20066;-88
2023/09/13 11:44:58;;;;;;;6.10;2.00;;;;;;;30.36;30.44;99800.34;4969928;28;20461;-90
2023/09/13 11:47:24;;;;;;;0.65;0.65;;;;;;;30.32;30.79;99788.91;4971147;28;20061;-88
2023/09/13 11:49:56;;;;;;;2.13;1.45;;;;;;;30.38;30.40;99771.13;4970734;28;20036;-88
2023/09/13 11:52:22;;;;;;;1.65;0.88;;;;;;;30.87;30.41;99803.59;4971702;28;20053;-88
2023/09/13 11:55:11;;;;;;;3.42;1.52;;;;;;;31.00;30.56;99776.03;4974313;28;20027;-88
2023/09/13 11:57:50;;;;;;;1.33;0.90;;;;;;;30.92;30.00;99773.19;4974705;28;20085;-88
2023/09/13 12:00:19;;;;;;;1.73;1.20;;;;;;;30.53;29.93;99726.09;4973337;28;20038;-90
2023/09/13 12:02:45;;;;;;;0.75;0.63;;;;;;;30.55;29.62;99749.59;4987047;28;20093;-88
2023/09/13 12:05:12;;;;;;;0.90;0.73;;;;;;;30.46;29.99;99749.50;4965867;28;20429;-89
2023/09/13 12:07:37;;;;;;;5.80;1.48;;;;;;;30.46;29.59;99735.91;4973257;28;20438;-89
2023/09/13 12:10:05;;;;;;;1.40;1.02;;;;;;;30.81;29.53;99782.41;4973148;28;20038;-92
2023/09/13 12:12:43;;;;;;;2.53;1.30;;;;;;;30.73;29.15;99783.19;4974659;28;20105;-91
2023/09/13 12:15:14;;;;;;;1.35;0.73;;;;;;;30.41;29.60;99749.06;4991680;28;20042;-86
2023/09/13 12:17:40;;;;;;;1.15;0.90;;;;;;;30.77;29.47;99762.81;4993131;28;20041;-86